ADDS METAR Data INFO
IDs: Format: Raw Decoded Include TAF

Data at: 1812 UTC 19 Oct 2017

KLHB 191755Z AUTO 19006KT 10SM BKN040 26/16 A3015 RMK AO2 T02640159 10268 20107
KLHB 191735Z AUTO 20003KT 10SM BKN038 26/16 A3016 RMK AO2 T02580158
KLHB 191710Z AUTO 13004KT 10SM SCT034 26/16 A3017 RMK AO2 T02550162
KLHB 191655Z AUTO 15003KT 10SM SCT032 26/16 A3017 RMK AO2 T02570163
KLHB 191635Z AUTO 15005KT 10SM SCT032 25/17 A3017 RMK AO2 T02480166
KLHB 191615Z AUTO 13004KT 10SM SCT034 24/17 A3017 RMK AO2 T02440171
KLHB 191555Z AUTO 11003KT 10SM BKN034 24/17 A3018 RMK AO2 T02390171
KLHB 191535Z AUTO 00000KT 10SM BKN034 23/17 A3018 RMK AO2 T02270172
KLHB 191515Z AUTO 08003KT 10SM BKN034 21/17 A3018 RMK AO2 T02130171
KLHB 191455Z AUTO 00000KT 10SM CLR 21/17 A3018 RMK AO2 T02080171
KLHB 191435Z AUTO 00000KT 10SM CLR 20/17 A3017 RMK AO2 T01980168
KLHB 191415Z AUTO 00000KT 7SM CLR 17/16 A3017 RMK AO2 T01670157
KLHB 191355Z AUTO 00000KT 7SM CLR 15/15 A3016 RMK AO2 T01480148
KLHB 191335Z AUTO 00000KT 5SM BR CLR 14/14 A3016 RMK AO2 T01390139
KLHB 191315Z AUTO 00000KT 4SM BR SCT029 13/13 A3015 RMK AO2 T01250125
KLHB 191255Z AUTO 00000KT 5SM BR SCT029 12/12 A3015 RMK AO2 T01160116
KLHB 191235Z AUTO 00000KT 7SM SCT029 12/12 A3014 RMK AO2 T01210121
KLHB 191215Z AUTO 00000KT 10SM SCT029 11/11 A3014 RMK AO2 T01090109
KLHB 191155Z AUTO 00000KT 10SM CLR 11/11 A3014 RMK AO2 T01070107 10132 20104
KLHB 191135Z AUTO 00000KT 10SM CLR 11/11 A3014 RMK AO2 T01100110
KLHB 191115Z AUTO 00000KT 7SM CLR 10/10 A3014 RMK AO2 T01040104
KLHB 191055Z AUTO 00000KT 10SM CLR 11/11 A3014 RMK AO2 T01100110
KLHB 191035Z AUTO 00000KT 10SM CLR 11/11 A3013 RMK AO2 T01100110
KLHB 191010Z AUTO 00000KT 10SM CLR 11/11 A3013 RMK AO2 T01110111
KLHB 190955Z AUTO 00000KT 10SM CLR 12/12 A3013 RMK AO2 T01170117
KLHB 190940Z AUTO 00000KT 10SM CLR 12/12 A3013 RMK AO2 T01160116
KLHB 190910Z AUTO 00000KT 10SM CLR 12/12 A3013 RMK AO2 T01180116
KLHB 190855Z AUTO 00000KT 10SM CLR 12/12 A3014 RMK AO2 T01200118
KLHB 190835Z AUTO 00000KT 10SM CLR 13/12 A3014 RMK AO2 T01280120
KLHB 190815Z AUTO 00000KT 10SM CLR 13/12 A3014 RMK AO2 T01270121
KLHB 190755Z AUTO 00000KT 10SM CLR 13/12 A3014 RMK AO2 T01300116
KLHB 190735Z AUTO 00000KT 10SM CLR 13/12 A3014 RMK AO2 T01310116
KLHB 190710Z AUTO 00000KT 10SM CLR 13/11 A3014 RMK AO2 T01250112
KLHB 190655Z AUTO 00000KT 10SM CLR 13/11 A3013 RMK AO2 T01270111
KLHB 190635Z AUTO 00000KT 10SM CLR 13/11 A3013 RMK AO2 T01300114
KLHB 190610Z AUTO 00000KT 10SM CLR 13/11 A3013 RMK AO2 T01320110
KLHB 190555Z AUTO 00000KT 10SM CLR 13/11 A3014 RMK AO2 T01300111 10225 20124 402760047
KLHB 190535Z AUTO 00000KT 10SM CLR 13/11 A3013 RMK AO2 T01260107
KLHB 190515Z AUTO 00000KT 10SM CLR 12/11 A3013 RMK AO2 T01240108
KLHB 190455Z AUTO 00000KT 10SM CLR 13/11 A3013 RMK AO2 T01320110
KLHB 190430Z AUTO 00000KT 10SM CLR 13/11 A3013 RMK AO2 T01320105
KLHB 190415Z AUTO 00000KT 10SM CLR 14/11 A3013 RMK AO2 T01350108
KLHB 190355Z AUTO 00000KT 10SM CLR 14/10 A3013 RMK AO2 T01350098
KLHB 190335Z AUTO 00000KT 10SM CLR 15/11 A3013 RMK AO2 T01510105
KLHB 190315Z AUTO 00000KT 10SM CLR 17/10 A3013 RMK AO2 T01710102
KLHB 190255Z AUTO 09003KT 10SM CLR 17/10 A3013 RMK AO2 T01680102
KLHB 190235Z AUTO 00000KT 10SM CLR 18/10 A3012 RMK AO2 T01790102
KLHB 190215Z AUTO 00000KT 10SM CLR 18/10 A3012 RMK AO2 T01750102
KLHB 190155Z AUTO 00000KT 10SM CLR 18/10 A3012 RMK AO2 T01790104
KLHB 190135Z AUTO 00000KT 10SM CLR 19/11 A3012 RMK AO2 T01850105
KLHB 190115Z AUTO 00000KT 10SM CLR 19/10 A3011 RMK AO2 T01930104
KLHB 190055Z AUTO 00000KT 10SM CLR 20/10 A3011 RMK AO2 T02000102
KLHB 190035Z AUTO 00000KT 7SM CLR 21/10 A3010 RMK AO2 T02080104
KLHB 190015Z AUTO 00000KT 5SM HZ CLR 21/10 A3010 RMK AO2 T02100102
KLHB 182355Z AUTO 00000KT 10SM CLR 23/10 A3010 RMK AO2 T02270097 10276 20227
KLHB 182335Z AUTO 00000KT 10SM CLR 24/09 A3009 RMK AO2 T02370094
KLHB 182315Z AUTO 00000KT 7SM CLR 25/09 A3009 RMK AO2 T02470086
KLHB 182255Z AUTO 00000KT 7SM CLR 25/08 A3010 RMK AO2 T02520083
KLHB 182235Z AUTO 13004KT 7SM CLR 26/08 A3009 RMK AO2 T02600078
KLHB 182215Z AUTO 12003KT 7SM CLR 27/07 A3010 RMK AO2 T02660067
KLHB 182155Z AUTO 10004KT 7SM CLR 27/06 A3010 RMK AO2 T02710063
KLHB 182135Z AUTO 14005KT 10SM CLR 27/05 A3010 RMK AO2 T02730046
KLHB 182115Z AUTO 11003KT 7SM CLR 27/06 A3010 RMK AO2 T02730058
KLHB 182055Z AUTO 14005KT 10SM CLR 27/06 A3011 RMK AO2 T02720059
KLHB 182040Z AUTO 16006KT 10SM CLR 27/07 A3012 RMK AO2 T02690067
KLHB 182015Z AUTO 00000KT 10SM CLR 27/07 A3012 RMK AO2 T02670066
KLHB 181955Z AUTO 18004KT 10SM CLR 27/07 A3013 RMK AO2 T02660066
KLHB 181935Z AUTO 17005KT 10SM CLR 26/07 A3013 RMK AO2 T02630067
KLHB 181915Z AUTO 13003KT 10SM CLR 26/07 A3014 RMK AO2 T02570066
KLHB 181855Z AUTO 20003KT 10SM CLR 25/08 A3015 RMK AO2 T02500076
KLHB 181835Z AUTO 15006KT 10SM CLR 25/08 A3016 RMK AO2 T02470079
KLHB 181815Z AUTO 00000KT 10SM CLR 24/08 A3017 RMK AO2 T02430077
KLHB 181755Z AUTO 21005KT 10SM CLR 24/08 A3018 RMK AO2 T02380084 10239 20051
KLHB 181735Z AUTO 00000KT 10SM CLR 23/08 A3019 RMK AO2 T02330082
KLHB 181715Z AUTO 13006KT 10SM CLR 23/08 A3020 RMK AO2 T02290083
KLHB 181655Z AUTO 00000KT 10SM CLR 23/09 A3021 RMK AO2 T02280088
KLHB 181635Z AUTO 15007KT 10SM CLR 22/08 A3021 RMK AO2 T02200083
KLHB 181615Z AUTO 15006KT 10SM CLR 22/09 A3021 RMK AO2 T02160089
KLHB 181555Z AUTO 16005KT 10SM CLR 20/09 A3021 RMK AO2 T02040093
KLHB 181535Z AUTO 16004KT 10SM CLR 19/10 A3021 RMK AO2 T01910099
KLHB 181515Z AUTO 14003KT 10SM CLR 18/10 A3021 RMK AO2 T01760098
KLHB 181455Z AUTO 14005KT 10SM CLR 16/10 A3020 RMK AO2 T01620100
KLHB 181435Z AUTO 00000KT 7SM CLR 15/11 A3020 RMK AO2 T01500105
KLHB 181415Z AUTO 00000KT 10SM CLR 13/10 A3020 RMK AO2 T01260102
KLHB 181355Z AUTO 00000KT 10SM CLR 11/09 A3020 RMK AO2 T01080094
KLHB 181340Z AUTO 00000KT 10SM CLR 09/09 A3019 RMK AO2 T00910086
KLHB 181315Z AUTO 00000KT 10SM CLR 06/06 A3019 RMK AO2 T00610061
KLHB 181300Z AUTO 00000KT 10SM CLR 05/05 A3018 RMK AO2 T00530053
KLHB 181235Z AUTO 00000KT 10SM CLR 05/05 A3018 RMK AO2 T00540054
KLHB 181220Z AUTO 00000KT 10SM CLR 06/06 A3018 RMK AO2 T00550055
KLHB 181155Z AUTO 00000KT 10SM CLR 05/05 A3017 RMK AO2 T00510051 10083 20047
KLHB 181140Z AUTO 00000KT 10SM CLR 05/05 A3017 RMK AO2 T00490049
KLHB 181115Z AUTO 00000KT 10SM CLR 06/06 A3017 RMK AO2 T00560056
KLHB 181055Z AUTO 00000KT 10SM CLR 05/05 A3017 RMK AO2 T00530053
KLHB 181040Z AUTO 00000KT 10SM CLR 05/05 A3017 RMK AO2 T00540054
KLHB 181015Z AUTO 00000KT 10SM CLR 06/06 A3017 RMK AO2 T00590059
KLHB 180955Z AUTO 00000KT 10SM CLR 06/06 A3016 RMK AO2 T00610061
KLHB 180940Z AUTO 00000KT 10SM CLR 06/06 A3016 RMK AO2 T00610060
KLHB 180915Z AUTO 00000KT 10SM CLR 07/06 A3016 RMK AO2 T00650063
KLHB 180855Z AUTO 00000KT 10SM CLR 06/06 A3016 RMK AO2 T00640064
KLHB 180835Z AUTO 00000KT 10SM CLR 07/07 A3016 RMK AO2 T00650065
KLHB 180815Z AUTO 00000KT 10SM CLR 06/06 A3017 RMK AO2 T00640064
KLHB 180755Z AUTO 00000KT 10SM CLR 07/07 A3018 RMK AO2 T00690068
KLHB 180735Z AUTO 00000KT 10SM CLR 07/07 A3018 RMK AO2 T00700066
KLHB 180715Z AUTO 00000KT 10SM CLR 07/07 A3018 RMK AO2 T00730070
KLHB 180655Z AUTO 00000KT 10SM CLR 08/07 A3018 RMK AO2 T00770074
KLHB 180635Z AUTO 00000KT 10SM CLR 08/07 A3018 RMK AO2 T00780072
KLHB 180615Z AUTO 00000KT 10SM CLR 08/08 A3018 RMK AO2 T00810076